createdAt,value
2022-10-09T00:01:23.290Z,99223.47
2022-10-09T00:03:52.081Z,99223.47
2022-10-09T00:06:31.260Z,99219.19
2022-10-09T00:08:58.838Z,99226.03
2022-10-09T00:11:27.649Z,99221.72
2022-10-09T00:13:55.659Z,99225.94
2022-10-09T00:16:22.893Z,99226.81
2022-10-09T00:18:49.851Z,99230.22
2022-10-09T00:21:28.821Z,99237.06
2022-10-09T00:23:57.871Z,99226.81
2022-10-09T00:26:25.106Z,99227.66
2022-10-09T00:28:51.623Z,99231.03
2022-10-09T00:31:19.116Z,99226.75
2022-10-09T00:33:46.159Z,99234.41
2022-10-09T00:36:16.048Z,99228.47
2022-10-09T00:38:42.842Z,99228.44
2022-10-09T00:41:14.098Z,99223.25
2022-10-09T00:43:43.204Z,99228.34
2022-10-09T00:46:34.945Z,99223.22
2022-10-09T00:49:27.887Z,99217.25
2022-10-09T00:51:57.161Z,99212.97
2022-10-09T00:54:27.178Z,99218.09
2022-10-09T00:56:54.790Z,99214.69
2022-10-09T00:59:21.749Z,99210.41
2022-10-09T01:01:48.348Z,99210.41
2022-10-09T01:04:15.017Z,99211.25
2022-10-09T01:06:59.539Z,99211.25
2022-10-09T01:09:53.892Z,99198.41
2022-10-09T01:12:35.510Z,99208.63
2022-10-09T01:15:08.441Z,99201.81
2022-10-09T01:17:45.318Z,99202.63
2022-10-09T01:20:23.509Z,99200.03
2022-10-09T01:22:55.940Z,99196.59
2022-10-09T01:26:04.259Z,99194.88
2022-10-09T01:28:31.298Z,99198.28
2022-10-09T01:30:59.988Z,99196.53
2022-10-09T01:33:26.912Z,99197.38
2022-10-09T01:35:53.686Z,99209.28
2022-10-09T01:38:23.253Z,99193.06
2022-10-09T01:40:52.375Z,99198.16
2022-10-09T01:43:19.355Z,99197.28
2022-10-09T01:45:47.745Z,99200.69
2022-10-09T01:48:21.893Z,99197.28
2022-10-09T01:50:54.401Z,99187.06
2022-10-09T01:53:21.602Z,99185.38
2022-10-09T01:55:56.424Z,99184.50
2022-10-09T01:58:35.065Z,99185.31
2022-10-09T02:01:13.829Z,99188.72
2022-10-09T02:03:42.925Z,99178.47
2022-10-09T02:06:13.181Z,99180.97
2022-10-09T02:08:41.480Z,99179.28
2022-10-09T02:11:08.366Z,99175.00
2022-10-09T02:13:35.876Z,99175.84
2022-10-09T02:16:22.333Z,99170.69
2022-10-09T02:18:55.972Z,99172.38
2022-10-09T02:21:26.936Z,99174.94
2022-10-09T02:23:57.663Z,99167.25
2022-10-09T02:26:24.931Z,99165.53
2022-10-09T02:28:51.566Z,99170.59
2022-10-09T02:31:25.697Z,99169.69
2022-10-09T02:34:00.715Z,99174.78
2022-10-09T02:36:28.714Z,99176.47
2022-10-09T02:38:56.465Z,99181.56
2022-10-09T02:41:23.814Z,99173.81
2022-10-09T02:43:50.787Z,99177.22
2022-10-09T02:46:17.957Z,99179.75
2022-10-09T02:48:44.985Z,99169.53
2022-10-09T02:51:11.569Z,99181.44
2022-10-09T02:53:38.061Z,99174.66
2022-10-09T02:56:04.587Z,99178.06
2022-10-09T02:58:32.532Z,99173.78
2022-10-09T03:00:59.090Z,99176.38
2022-10-09T03:03:26.123Z,99173.00
2022-10-09T03:06:22.714Z,99177.28
2022-10-09T03:08:50.615Z,99180.66
2022-10-09T03:11:19.041Z,99183.22
2022-10-09T03:13:45.819Z,99181.53
2022-10-09T03:16:15.063Z,99176.38
2022-10-09T03:18:41.642Z,99182.34
2022-10-09T03:21:09.637Z,99191.69
2022-10-09T03:23:36.405Z,99186.53
2022-10-09T03:26:06.769Z,99189.06
2022-10-09T03:28:36.228Z,99195.00
2022-10-09T03:31:04.019Z,99188.97
2022-10-09T03:33:30.640Z,99194.09
2022-10-09T03:35:57.155Z,99194.94
2022-10-09T03:38:23.619Z,99194.91
2022-10-09T03:40:50.016Z,99192.31
2022-10-09T03:43:16.431Z,99194.84
2022-10-09T03:45:43.322Z,99188.84
2022-10-09T03:48:11.314Z,99194.00
2022-10-09T03:50:41.143Z,99186.25
2022-10-09T03:53:09.024Z,99184.53
2022-10-09T03:55:35.656Z,99193.88
2022-10-09T03:58:02.180Z,99193.88
2022-10-09T04:00:29.171Z,99190.47
2022-10-09T04:02:55.644Z,99194.63
2022-10-09T04:05:22.449Z,99186.13
2022-10-09T04:07:49.122Z,99192.03
2022-10-09T04:10:15.682Z,99192.84
2022-10-09T04:12:42.442Z,99183.41
2022-10-09T04:15:09.811Z,99188.50
2022-10-09T04:17:36.544Z,99188.47
2022-10-09T04:20:03.546Z,99183.31
2022-10-09T04:22:30.020Z,99189.31
2022-10-09T04:24:56.422Z,99191.78
2022-10-09T04:27:22.809Z,99190.94
2022-10-09T04:29:49.250Z,99187.50
2022-10-09T04:32:15.636Z,99186.56
2022-10-09T04:34:42.034Z,99189.13
2022-10-09T04:37:08.468Z,99186.53
2022-10-09T04:39:34.835Z,99182.22
2022-10-09T04:42:01.238Z,99184.72
2022-10-09T04:44:27.660Z,99185.63
2022-10-09T04:46:54.063Z,99178.00
2022-10-09T04:49:20.470Z,99178.84
2022-10-09T04:51:46.958Z,99180.50
2022-10-09T04:54:13.598Z,99183.94
2022-10-09T04:56:40.006Z,99172.03
2022-10-09T04:59:06.404Z,99180.56
2022-10-09T05:01:37.837Z,99174.59
2022-10-09T05:04:04.807Z,99177.06
2022-10-09T05:06:31.578Z,99175.34
2022-10-09T05:08:58.027Z,99172.72
2022-10-09T05:11:25.981Z,99172.69
2022-10-09T05:13:54.879Z,99181.16
2022-10-09T05:16:25.682Z,99176.91
2022-10-09T05:18:55.339Z,99185.34
2022-10-09T05:21:22.546Z,99190.47
2022-10-09T05:23:49.432Z,99193.03
2022-10-09T05:26:20.705Z,99192.25
2022-10-09T05:28:48.055Z,99190.59
2022-10-09T05:31:26.449Z,99195.72
2022-10-09T05:33:53.805Z,99192.34
2022-10-09T05:36:20.732Z,99194.13
2022-10-09T05:38:47.864Z,99209.38
2022-10-09T05:41:16.354Z,99199.22
2022-10-09T05:43:44.914Z,99202.56
2022-10-09T05:46:14.601Z,99215.28
2022-10-09T05:48:43.584Z,99205.81
2022-10-09T05:51:19.871Z,99204.09
2022-10-09T05:53:47.476Z,99204.09
2022-10-09T05:56:21.345Z,99204.09
2022-10-09T05:59:09.080Z,99205.88
2022-10-09T06:01:41.022Z,99205.97
2022-10-09T06:04:10.939Z,99205.25
2022-10-09T06:06:39.267Z,99207.97
2022-10-09T06:09:07.644Z,99207.22
2022-10-09T06:11:36.920Z,99212.47
2022-10-09T06:14:11.306Z,99208.38
2022-10-09T06:16:40.305Z,99204.38
2022-10-09T06:19:08.130Z,99209.50
2022-10-09T06:21:35.128Z,99206.97
2022-10-09T06:24:04.300Z,99218.13
2022-10-09T06:26:31.806Z,99214.81
2022-10-09T06:29:00.837Z,99203.88
2022-10-09T06:31:32.423Z,99215.03
2022-10-09T06:34:00.529Z,99210.81
2022-10-09T06:36:33.035Z,99219.53
2022-10-09T06:39:01.445Z,99212.03
2022-10-09T06:41:29.563Z,99218.19
2022-10-09T06:44:00.220Z,99219.16
2022-10-09T06:46:29.877Z,99223.53
2022-10-09T06:48:58.424Z,99221.06
2022-10-09T06:51:25.544Z,99216.81
2022-10-09T06:53:54.053Z,99219.38
2022-10-09T06:56:22.435Z,99209.09
2022-10-09T06:58:51.454Z,99211.66
2022-10-09T07:01:19.180Z,99213.34
2022-10-09T07:03:48.475Z,99216.63
2022-10-09T07:06:20.305Z,99215.59
2022-10-09T07:08:55.425Z,99216.28
2022-10-09T07:11:43.199Z,99213.25
2022-10-09T07:14:11.459Z,99207.63
2022-10-09T07:16:40.638Z,99207.88
2022-10-09T07:19:10.913Z,99211.06
2022-10-09T07:21:39.539Z,99209.16
2022-10-09T07:24:06.448Z,99209.53
2022-10-09T07:26:35.625Z,99208.94
2022-10-09T07:29:02.650Z,99213.78
2022-10-09T07:31:29.185Z,99220.38
2022-10-09T07:33:58.447Z,99216.34
2022-10-09T07:36:25.855Z,99216.16
2022-10-09T07:38:54.572Z,99218.38
2022-10-09T07:41:22.105Z,99225.72
2022-10-09T07:43:48.745Z,99218.81
2022-10-09T07:46:17.568Z,99215.38
2022-10-09T07:48:44.921Z,99224.88
2022-10-09T07:51:19.004Z,99211.75
2022-10-09T07:53:46.132Z,99199.47
2022-10-09T07:56:24.002Z,99210.09
2022-10-09T07:58:55.068Z,99202.38
2022-10-09T08:01:22.936Z,99204.50
2022-10-09T08:03:50.038Z,99193.63
2022-10-09T08:06:18.154Z,99198.53
2022-10-09T08:08:45.153Z,99194.09
2022-10-09T08:11:16.335Z,99185.78
2022-10-09T08:13:44.636Z,99183.59
2022-10-09T08:16:11.480Z,99188.06
2022-10-09T08:18:38.113Z,99188.81
2022-10-09T08:21:07.968Z,99183.22
2022-10-09T08:23:34.659Z,99188.97
2022-10-09T08:26:01.255Z,99183.41
2022-10-09T08:28:27.787Z,99186.09
2022-10-09T08:30:54.275Z,99175.25
2022-10-09T08:33:22.111Z,99180.53
2022-10-09T08:35:52.097Z,99181.88
2022-10-09T08:38:44.784Z,99179.50
2022-10-09T08:41:11.747Z,99174.31
2022-10-09T08:43:42.620Z,99171.44
2022-10-09T08:46:51.647Z,99165.50
2022-10-09T08:49:34.641Z,99173.19
2022-10-09T08:52:21.449Z,99168.50
2022-10-09T08:54:48.089Z,99155.19
2022-10-09T08:57:16.581Z,99160.13
2022-10-09T08:59:44.240Z,99153.81
2022-10-09T09:02:41.077Z,99152.28
2022-10-09T09:05:27.762Z,99150.84
2022-10-09T09:08:19.815Z,99146.97
2022-10-09T09:11:03.749Z,99146.69
2022-10-09T09:13:45.518Z,99135.19
2022-10-09T09:16:37.625Z,99138.81
2022-10-09T09:19:20.696Z,99131.59
2022-10-09T09:21:51.648Z,99136.22
2022-10-09T09:24:35.684Z,99136.94
2022-10-09T09:27:10.222Z,99129.47
2022-10-09T09:29:42.811Z,99133.78
2022-10-09T09:32:17.764Z,99126.22
2022-10-09T09:34:44.569Z,99135.53
2022-10-09T09:37:12.189Z,99131.50
2022-10-09T09:42:25.344Z,99126.56
2022-10-09T09:45:00.201Z,99130.53
2022-10-09T09:47:34.450Z,99127.09
2022-10-09T09:50:03.380Z,99131.69
2022-10-09T09:52:34.742Z,99124.81
2022-10-09T09:55:01.270Z,99133.69
2022-10-09T09:57:39.091Z,99127.28
2022-10-09T10:00:23.838Z,99125.00
2022-10-09T10:03:01.198Z,99125.22
2022-10-09T10:05:27.789Z,99124.72
2022-10-09T10:07:54.301Z,99119.56
2022-10-09T10:10:25.650Z,99113.81
2022-10-09T10:12:52.760Z,99112.22
2022-10-09T10:15:29.247Z,99114.16
2022-10-09T10:18:02.087Z,99108.44
2022-10-09T10:20:32.069Z,99095.91
2022-10-09T10:22:59.854Z,99100.94
2022-10-09T10:25:32.451Z,99097.75
2022-10-09T10:28:13.282Z,99097.41
2022-10-09T10:30:40.346Z,99090.53
2022-10-09T10:33:29.008Z,99087.69
2022-10-09T10:35:57.687Z,99086.34
2022-10-09T10:38:39.395Z,99086.69
2022-10-09T10:41:30.396Z,99078.53
2022-10-09T10:44:15.658Z,99083.84
2022-10-09T10:46:49.553Z,99072.75
2022-10-09T10:49:20.306Z,99061.81
2022-10-09T10:52:04.301Z,99073.53
2022-10-09T10:54:37.641Z,99056.34
2022-10-09T10:57:22.983Z,99056.53
2022-10-09T11:00:09.484Z,99056.84
2022-10-09T11:02:42.397Z,99047.63
2022-10-09T11:05:26.897Z,99041.81
2022-10-09T11:08:02.641Z,99033.56
2022-10-09T11:11:10.721Z,99030.97
2022-10-09T11:13:56.180Z,99029.94
2022-10-09T11:16:22.619Z,99032.66
2022-10-09T11:19:11.303Z,99027.47
2022-10-09T11:21:47.707Z,99020.69
2022-10-09T11:24:14.067Z,99018.72
2022-10-09T11:27:06.236Z,99017.97
2022-10-09T11:29:45.188Z,99004.97
2022-10-09T11:32:24.295Z,98999.63
2022-10-09T11:34:58.292Z,99001.22
2022-10-09T11:37:30.144Z,98998.06
2022-10-09T11:39:56.888Z,99003.81
2022-10-09T11:42:25.488Z,98989.81
2022-10-09T12:11:19.357Z,98946.44
2022-10-09T12:13:55.634Z,98949.31
2022-10-09T12:16:30.129Z,98939.72
2022-10-09T12:18:58.932Z,98933.22
2022-10-09T12:21:31.553Z,98935.19
2022-10-09T12:23:58.449Z,98927.72
2022-10-09T12:26:25.572Z,98918.13
2022-10-09T12:28:56.284Z,98922.94
2022-10-09T12:31:41.666Z,98924.63
2022-10-09T12:34:27.843Z,98915.06
2022-10-09T12:37:31.584Z,98910.84
2022-10-09T12:40:08.068Z,98904.06
2022-10-09T12:42:34.542Z,98906.84
2022-10-09T12:45:01.743Z,98894.19
2022-10-09T12:47:29.857Z,98894.72
2022-10-09T12:49:58.747Z,98898.56
2022-10-09T12:52:25.239Z,98892.91
2022-10-09T12:54:51.665Z,98888.22
2022-10-09T12:57:19.677Z,98892.75
2022-10-09T12:59:49.559Z,98884.69
2022-10-09T13:02:19.885Z,98879.06
2022-10-09T13:04:58.632Z,98868.00
2022-10-09T13:07:26.978Z,98862.22
2022-10-09T13:10:02.784Z,98861.09
2022-10-09T13:12:31.042Z,98866.28
2022-10-09T13:14:58.923Z,98851.09
2022-10-09T13:20:12.774Z,98848.16
2022-10-09T13:22:39.647Z,98846.00
2022-10-09T13:25:06.741Z,98845.25
2022-10-09T13:27:37.875Z,98840.88
2022-10-09T13:30:06.093Z,98835.06
2022-10-09T13:32:32.430Z,98827.47
2022-10-09T13:34:58.814Z,98838.41
2022-10-09T13:37:26.542Z,98832.16
2022-10-09T13:39:57.482Z,98826.63
2022-10-09T13:42:26.890Z,98827.09
2022-10-09T13:44:53.459Z,98831.63
2022-10-09T13:47:24.215Z,98832.16
2022-10-09T13:49:51.500Z,98829.50
2022-10-09T13:52:18.010Z,98818.94
2022-10-09T13:54:45.165Z,98812.72
2022-10-09T13:57:11.849Z,98804.38
2022-10-09T13:59:38.392Z,98807.72
2022-10-09T14:02:04.884Z,98810.50
2022-10-09T14:04:31.520Z,98803.41
2022-10-09T14:06:57.984Z,98801.03
2022-10-09T14:09:24.483Z,98788.56
2022-10-09T14:11:50.900Z,98801.09
2022-10-09T14:14:17.333Z,98781.47
2022-10-09T14:16:43.986Z,98784.44
2022-10-09T14:19:10.756Z,98789.78
2022-10-09T14:21:37.509Z,98785.09
2022-10-09T14:24:04.500Z,98773.81
2022-10-09T14:26:31.416Z,98764.03
2022-10-09T14:29:02.805Z,98765.72
2022-10-09T14:31:30.183Z,98773.25
2022-10-09T14:33:58.638Z,98767.88
2022-10-09T14:36:25.724Z,98761.84
2022-10-09T14:38:52.471Z,98766.63
2022-10-09T14:41:19.889Z,98771.81
2022-10-09T14:43:47.929Z,98761.19
2022-10-09T14:46:17.842Z,98760.88
2022-10-09T14:48:45.896Z,98756.44
2022-10-09T14:51:15.052Z,98756.06
2022-10-09T14:53:42.010Z,98752.97
2022-10-09T14:56:12.305Z,98757.38
2022-10-09T14:58:40.013Z,98754.06
2022-10-09T15:01:07.205Z,98749.34
2022-10-09T15:03:35.163Z,98742.34
2022-10-09T15:06:06.698Z,98746.75
2022-10-09T15:08:35.036Z,98747.09
2022-10-09T15:11:02.498Z,98747.91
2022-10-09T15:13:29.432Z,98747.41
2022-10-09T15:16:14.005Z,98743.03
2022-10-09T15:18:41.050Z,98742.47
2022-10-09T15:21:13.121Z,98739.94
2022-10-09T15:23:40.175Z,98742.63
2022-10-09T15:26:06.836Z,98737.72
2022-10-09T15:28:33.326Z,98732.72
2022-10-09T15:31:01.150Z,98723.19
2022-10-09T15:33:27.620Z,98736.38
2022-10-09T15:35:54.014Z,98727.94
2022-10-09T15:38:22.221Z,98725.19
2022-10-09T15:40:51.502Z,98725.19
2022-10-09T15:43:19.998Z,98717.94
2022-10-09T15:45:47.377Z,98711.94
2022-10-09T15:48:16.528Z,98713.84
2022-10-09T15:50:46.257Z,98708.31
2022-10-09T15:53:14.945Z,98707.69
2022-10-09T15:55:45.861Z,98708.16
2022-10-09T15:58:13.247Z,98705.69
2022-10-09T16:00:41.910Z,98699.75
2022-10-09T16:03:08.943Z,98703.56
2022-10-09T16:05:44.241Z,98700.25
2022-10-09T16:08:12.079Z,98697.44
2022-10-09T16:10:49.047Z,98710.50
2022-10-09T16:13:16.357Z,98703.91
2022-10-09T16:15:49.644Z,98707.94
2022-10-09T16:18:18.252Z,98708.84
2022-10-09T16:20:45.031Z,98699.59
2022-10-09T16:23:12.338Z,98705.28
2022-10-09T16:25:39.734Z,98703.75
2022-10-09T16:28:08.537Z,98703.22
2022-10-09T16:30:42.850Z,98707.00
2022-10-09T16:33:12.616Z,98703.84
2022-10-09T16:35:39.535Z,98703.34
2022-10-09T16:38:06.494Z,98716.97
2022-10-09T16:40:57.471Z,98716.47
2022-10-09T16:43:20.136Z,98714.34
2022-10-09T16:45:46.571Z,98715.56
2022-10-09T16:48:12.957Z,98708.22
2022-10-09T16:50:41.313Z,98715.41
2022-10-09T16:53:07.752Z,98715.78
2022-10-09T16:55:34.409Z,98714.31
2022-10-09T16:58:00.890Z,98724.44
2022-10-09T17:00:27.524Z,98723.19
2022-10-09T17:02:54.023Z,98719.88
2022-10-09T17:05:20.570Z,98716.69
2022-10-09T17:07:47.300Z,98710.25
2022-10-09T17:10:13.940Z,98716.66
2022-10-09T17:12:40.308Z,98706.69
2022-10-09T17:15:07.227Z,98706.34
2022-10-09T17:17:33.783Z,98700.66
2022-10-09T17:20:00.215Z,98702.72
2022-10-09T17:22:26.604Z,98702.91
2022-10-09T17:24:53.020Z,98696.41
2022-10-09T17:27:19.499Z,98703.56
2022-10-09T17:29:45.927Z,98701.03
2022-10-09T17:32:12.347Z,98707.41
2022-10-09T17:34:42.999Z,98699.06
2022-10-09T17:37:09.397Z,98701.97
2022-10-09T17:39:35.780Z,98703.78
2022-10-09T17:42:02.192Z,98701.28
2022-10-09T17:44:31.854Z,98702.28
2022-10-09T17:46:58.310Z,98709.34
2022-10-09T17:49:24.758Z,98688.00
2022-10-09T17:51:52.653Z,98695.91
2022-10-09T17:54:19.081Z,98696.06
2022-10-09T17:56:45.606Z,98695.22
2022-10-09T17:59:12.287Z,98699.69
2022-10-09T18:01:39.108Z,98696.28
2022-10-09T18:04:05.503Z,98696.41
2022-10-09T18:06:33.478Z,98700.84
2022-10-09T18:09:00.408Z,98691.59
2022-10-09T18:11:28.449Z,98691.69
2022-10-09T18:13:55.014Z,98690.06
2022-10-09T18:16:31.380Z,98683.25
2022-10-09T18:19:07.786Z,98685.13
2022-10-09T18:21:35.300Z,98682.63
2022-10-09T18:24:01.849Z,98675.91
2022-10-09T18:26:28.349Z,98670.88
2022-10-09T18:28:54.793Z,98670.09
2022-10-09T18:31:23.592Z,98664.97
2022-10-09T18:33:50.381Z,98663.31
2022-10-09T18:36:19.740Z,98665.81
2022-10-09T18:38:49.177Z,98658.97
2022-10-09T18:41:16.505Z,98654.66
2022-10-09T18:43:42.924Z,98650.31
2022-10-09T18:46:09.600Z,98655.44
2022-10-09T18:48:39.509Z,98649.44
2022-10-09T18:51:09.027Z,98652.75
2022-10-09T18:53:38.054Z,98641.50
2022-10-09T18:56:06.307Z,98643.91
2022-10-09T18:58:33.758Z,98640.31
2022-10-09T19:01:03.322Z,98631.59
2022-10-09T19:03:31.867Z,98637.47
2022-10-09T19:05:58.264Z,98638.19
2022-10-09T19:08:24.688Z,98632.03
2022-10-09T19:10:52.904Z,98634.50
2022-10-09T19:13:20.609Z,98631.78
2022-10-09T19:15:55.253Z,98636.81
2022-10-09T19:18:22.466Z,98635.84
2022-10-09T19:20:49.471Z,98628.94
2022-10-09T19:23:18.999Z,98627.13
2022-10-09T19:25:53.184Z,98621.81
2022-10-09T19:28:20.785Z,98627.63
2022-10-09T19:30:48.222Z,98619.81
2022-10-09T19:33:15.615Z,98621.34
2022-10-09T19:36:00.176Z,98622.28
2022-10-09T19:38:27.785Z,98620.75
2022-10-09T19:40:54.373Z,98612.97
2022-10-09T19:43:25.083Z,98608.66
2022-10-09T19:46:09.521Z,98608.75
2022-10-09T19:48:36.886Z,98612.91
2022-10-09T19:51:08.771Z,98607.00
2022-10-09T19:53:35.552Z,98608.63
2022-10-09T19:56:02.898Z,98599.34
2022-10-09T19:58:30.200Z,98602.78
2022-10-09T20:00:56.612Z,98611.44
2022-10-09T20:03:23.046Z,98604.50
2022-10-09T20:05:49.439Z,98602.59
2022-10-09T20:08:15.865Z,98598.44
2022-10-09T20:10:42.262Z,98601.09
2022-10-09T20:13:08.658Z,98604.47
2022-10-09T20:15:35.011Z,98599.50
2022-10-09T20:18:01.394Z,98598.50
2022-10-09T20:20:28.012Z,98590.88
2022-10-09T20:22:54.399Z,98592.59
2022-10-09T20:25:20.934Z,98598.50
2022-10-09T20:27:47.528Z,98589.94
2022-10-09T20:30:13.946Z,98591.63
2022-10-09T20:32:40.381Z,98593.19
2022-10-09T20:35:07.343Z,98592.31
2022-10-09T20:37:34.969Z,98591.50
2022-10-09T20:40:01.723Z,98589.03
2022-10-09T20:42:28.119Z,98580.47
2022-10-09T20:44:54.511Z,98576.94
2022-10-09T20:47:20.894Z,98575.28
2022-10-09T20:49:48.182Z,98576.03
2022-10-09T20:52:14.569Z,98576.94
2022-10-09T20:54:40.953Z,98576.94
2022-10-09T20:57:07.352Z,98574.38
2022-10-09T20:59:33.805Z,98567.59
2022-10-09T21:02:00.195Z,98568.47
2022-10-09T21:04:26.582Z,98570.19
2022-10-09T21:06:58.348Z,98566.91
2022-10-09T21:09:27.477Z,98563.50
2022-10-09T21:11:56.228Z,98563.47
2022-10-09T21:14:22.644Z,98558.50
2022-10-09T21:16:49.099Z,98558.50
2022-10-09T21:19:15.945Z,98559.56
2022-10-09T21:21:45.318Z,98549.25
2022-10-09T21:24:13.930Z,98552.72
2022-10-09T21:26:40.976Z,98546.72
2022-10-09T21:29:07.471Z,98549.50
2022-10-09T21:31:34.283Z,98547.81
2022-10-09T21:34:11.916Z,98541.03
2022-10-09T21:36:47.124Z,98544.34
2022-10-09T21:39:25.080Z,98546.06
2022-10-09T21:41:51.535Z,98546.16
2022-10-09T21:44:17.984Z,98534.97
2022-10-09T21:46:44.529Z,98538.50
2022-10-09T21:49:22.946Z,98543.72
2022-10-09T21:51:49.698Z,98541.19
2022-10-09T21:54:16.634Z,98545.53
2022-10-09T21:56:43.270Z,98537.09
2022-10-09T21:59:09.974Z,98549.31
2022-10-09T22:01:36.423Z,98549.38
2022-10-09T22:04:02.952Z,98547.78
2022-10-09T22:06:29.372Z,98553.91
2022-10-09T22:08:55.959Z,98549.72
2022-10-09T22:11:22.450Z,98539.47
2022-10-09T22:13:49.090Z,98540.34
2022-10-09T22:16:15.791Z,98542.19
2022-10-09T22:18:42.565Z,98545.63
2022-10-09T22:21:14.021Z,98544.81
2022-10-09T22:23:41.232Z,98544.03
2022-10-09T22:26:13.500Z,98539.78
2022-10-09T22:28:39.947Z,98545.75
2022-10-09T22:31:14.759Z,98539.84
2022-10-09T22:33:41.791Z,98538.13
2022-10-09T22:36:17.869Z,98537.34
2022-10-09T22:38:44.650Z,98539.94
2022-10-09T22:41:17.120Z,98534.84
2022-10-09T22:43:49.038Z,98526.31
2022-10-09T22:46:18.633Z,98533.19
2022-10-09T22:48:47.213Z,98530.63
2022-10-09T22:51:15.291Z,98522.94
2022-10-09T22:53:43.139Z,98527.25
2022-10-09T22:56:21.947Z,98522.09
2022-10-09T22:58:51.717Z,98522.13
2022-10-09T23:01:31.479Z,98519.59
2022-10-09T23:03:59.948Z,98519.63
2022-10-09T23:06:26.688Z,98512.78
2022-10-09T23:08:53.520Z,98519.66
2022-10-09T23:11:21.535Z,98520.50
2022-10-09T23:13:53.973Z,98515.41
2022-10-09T23:16:21.320Z,98517.22
2022-10-09T23:18:52.642Z,98513.03
2022-10-09T23:21:22.288Z,98511.41
2022-10-09T23:23:50.053Z,98513.16
2022-10-09T23:26:18.872Z,98513.25
2022-10-09T23:28:55.962Z,98513.31
2022-10-09T23:31:22.981Z,98515.16
2022-10-09T23:33:49.403Z,98520.34
2022-10-09T23:36:20.292Z,98516.94
2022-10-09T23:38:47.426Z,98524.66
2022-10-09T23:41:17.052Z,98521.28
2022-10-09T23:43:45.219Z,98520.44
2022-10-09T23:46:14.313Z,98513.75
2022-10-09T23:48:41.298Z,98514.63
2022-10-09T23:51:07.837Z,98507.03
2022-10-09T23:53:34.505Z,98506.22
2022-10-09T23:56:01.432Z,98504.53
2022-10-09T23:58:27.931Z,98506.22
